createdAt,value
2022-10-23T00:00:40.363Z,101443.00
2022-10-23T00:03:06.870Z,101446.03
2022-10-23T00:05:33.822Z,101442.91
2022-10-23T00:08:00.768Z,101445.56
2022-10-23T00:10:28.206Z,101444.75
2022-10-23T00:12:54.692Z,101446.59
2022-10-23T00:15:22.557Z,101439.19
2022-10-23T00:17:49.551Z,101444.38
2022-10-23T00:20:17.588Z,101452.66
2022-10-23T00:22:44.045Z,101446.22
2022-10-23T00:25:10.949Z,101448.53
2022-10-23T00:27:37.566Z,101448.25
2022-10-23T00:30:05.286Z,101456.69
2022-10-23T00:34:59.135Z,101463.03
2022-10-23T00:37:25.617Z,101460.28
2022-10-23T00:39:52.142Z,101455.13
2022-10-23T00:42:20.327Z,101456.84
2022-10-23T00:44:46.673Z,101457.69
2022-10-23T00:47:13.780Z,101461.66
2022-10-23T00:49:42.699Z,101454.03
2022-10-23T00:52:12.205Z,101448.22
2022-10-23T00:54:40.883Z,101447.75
2022-10-23T00:57:12.793Z,101456.78
2022-10-23T00:59:39.443Z,101455.47
2022-10-23T01:02:06.599Z,101458.16
2022-10-23T01:04:34.278Z,101456.56
2022-10-23T01:07:22.579Z,101459.06
2022-10-23T01:09:56.803Z,101456.84
2022-10-23T01:12:29.662Z,101466.78
2022-10-23T01:15:04.104Z,101462.81
2022-10-23T01:17:40.843Z,101467.44
2022-10-23T01:20:33.093Z,101467.13
2022-10-23T01:23:12.802Z,101464.19
2022-10-23T01:26:00.596Z,101453.63
2022-10-23T01:28:48.835Z,101465.84
2022-10-23T01:31:18.964Z,101459.69
2022-10-23T01:33:51.280Z,101461.72
2022-10-23T01:36:20.822Z,101464.72
2022-10-23T01:39:06.966Z,101470.69
2022-10-23T01:41:39.175Z,101465.56
2022-10-23T01:44:13.303Z,101467.31
2022-10-23T01:46:40.046Z,101467.88
2022-10-23T01:49:08.760Z,101471.78
2022-10-23T01:51:36.932Z,101468.56
2022-10-23T01:54:06.227Z,101464.00
2022-10-23T01:56:33.989Z,101466.69
2022-10-23T01:59:03.755Z,101463.09
2022-10-23T02:01:31.041Z,101471.09
2022-10-23T02:06:25.325Z,101473.59
2022-10-23T02:08:51.787Z,101469.63
2022-10-23T02:11:21.035Z,101479.84
2022-10-23T02:13:59.291Z,101472.84
2022-10-23T02:16:41.516Z,101468.09
2022-10-23T02:19:15.874Z,101467.44
2022-10-23T02:21:52.580Z,101473.31
2022-10-23T02:24:34.387Z,101464.34
2022-10-23T02:27:03.224Z,101470.75
2022-10-23T02:29:40.578Z,101467.97
2022-10-23T02:32:08.281Z,101478.47
2022-10-23T02:34:34.769Z,101467.81
2022-10-23T02:37:02.152Z,101479.31
2022-10-23T02:39:29.061Z,101477.19
2022-10-23T02:42:10.152Z,101471.84
2022-10-23T02:45:24.665Z,101478.84
2022-10-23T02:48:09.763Z,101466.81
2022-10-23T02:50:39.701Z,101472.25
2022-10-23T02:53:19.512Z,101474.75
2022-10-23T02:55:45.909Z,101468.50
2022-10-23T02:58:28.306Z,101478.22
2022-10-23T03:01:03.924Z,101480.06
2022-10-23T03:03:33.859Z,101484.66
2022-10-23T03:06:00.321Z,101486.19
2022-10-23T03:08:26.784Z,101483.53
2022-10-23T03:10:53.269Z,101488.69
2022-10-23T03:13:19.744Z,101489.72
2022-10-23T03:15:46.241Z,101478.66
2022-10-23T03:18:12.747Z,101478.66
2022-10-23T03:20:39.256Z,101489.50
2022-10-23T03:23:05.727Z,101480.69
2022-10-23T03:25:32.393Z,101482.63
2022-10-23T03:27:59.284Z,101480.78
2022-10-23T03:30:25.743Z,101484.56
2022-10-23T03:32:52.233Z,101485.38
2022-10-23T03:35:18.700Z,101499.53
2022-10-23T03:37:45.271Z,101488.97
2022-10-23T03:40:12.063Z,101494.47
2022-10-23T03:42:38.517Z,101493.28
2022-10-23T03:45:05.364Z,101494.69
2022-10-23T03:47:34.921Z,101488.53
2022-10-23T03:50:01.841Z,101484.91
2022-10-23T03:52:28.307Z,101482.41
2022-10-23T03:54:54.767Z,101481.41
2022-10-23T03:57:21.230Z,101483.88
2022-10-23T03:59:47.670Z,101486.81
2022-10-23T04:02:14.185Z,101489.03
2022-10-23T04:04:40.744Z,101489.22
2022-10-23T04:07:07.215Z,101486.94
2022-10-23T04:09:33.712Z,101477.91
2022-10-23T04:12:00.370Z,101478.47
2022-10-23T04:14:27.084Z,101483.78
2022-10-23T04:16:53.746Z,101481.91
2022-10-23T04:19:20.198Z,101480.22
2022-10-23T04:21:46.748Z,101476.28
2022-10-23T04:24:13.231Z,101487.03
2022-10-23T04:26:39.747Z,101480.50
2022-10-23T04:29:07.036Z,101481.31
2022-10-23T04:31:33.525Z,101486.28
2022-10-23T04:34:00.058Z,101482.78
2022-10-23T04:36:26.607Z,101484.38
2022-10-23T04:38:53.243Z,101484.63
2022-10-23T04:41:19.767Z,101478.53
2022-10-23T04:43:46.259Z,101483.66
2022-10-23T04:46:12.778Z,101481.56
2022-10-23T04:48:39.236Z,101480.78
2022-10-23T04:51:06.413Z,101477.84
2022-10-23T04:53:33.174Z,101477.09
2022-10-23T04:56:00.008Z,101483.69
2022-10-23T04:58:27.229Z,101480.91
2022-10-23T05:00:53.856Z,101484.75
2022-10-23T05:03:21.523Z,101481.16
2022-10-23T05:05:47.981Z,101475.66
2022-10-23T05:08:17.855Z,101474.56
2022-10-23T05:10:44.949Z,101472.75
2022-10-23T05:13:11.483Z,101458.22
2022-10-23T05:15:37.987Z,101464.03
2022-10-23T05:18:16.200Z,101467.19
2022-10-23T05:20:42.999Z,101469.59
2022-10-23T05:23:11.248Z,101470.66
2022-10-23T05:25:37.720Z,101463.03
2022-10-23T05:28:04.239Z,101465.50
2022-10-23T05:30:32.955Z,101461.69
2022-10-23T05:33:01.124Z,101467.38
2022-10-23T05:35:29.626Z,101464.88
2022-10-23T05:37:57.743Z,101474.00
2022-10-23T05:40:24.550Z,101462.28
2022-10-23T05:42:51.079Z,101455.38
2022-10-23T05:45:17.541Z,101453.41
2022-10-23T05:47:45.203Z,101458.34
2022-10-23T05:50:11.670Z,101458.16
2022-10-23T05:52:38.144Z,101463.59
2022-10-23T05:55:04.710Z,101460.72
2022-10-23T05:57:34.112Z,101458.38
2022-10-23T06:00:00.649Z,101456.19
2022-10-23T06:02:27.210Z,101462.16
2022-10-23T06:04:53.720Z,101460.81
2022-10-23T06:07:24.998Z,101457.50
2022-10-23T06:09:52.845Z,101450.38
2022-10-23T06:12:20.659Z,101447.56
2022-10-23T06:14:47.284Z,101450.09
2022-10-23T06:17:13.744Z,101440.94
2022-10-23T06:19:40.230Z,101441.00
2022-10-23T06:22:06.783Z,101430.91
2022-10-23T06:24:33.340Z,101443.66
2022-10-23T06:26:59.798Z,101444.84
2022-10-23T06:29:26.247Z,101445.19
2022-10-23T06:31:52.716Z,101448.84
2022-10-23T06:34:19.206Z,101441.56
2022-10-23T06:36:45.719Z,101445.41
2022-10-23T06:39:12.270Z,101447.72
2022-10-23T06:41:41.886Z,101452.41
2022-10-23T06:44:10.133Z,101458.53
2022-10-23T06:46:36.629Z,101467.78
2022-10-23T06:49:03.463Z,101469.25
2022-10-23T06:51:29.926Z,101469.84
2022-10-23T06:53:57.210Z,101473.69
2022-10-23T06:56:25.222Z,101473.81
2022-10-23T06:58:51.777Z,101481.31
2022-10-23T07:01:18.338Z,101472.72
2022-10-23T07:03:45.039Z,101473.63
2022-10-23T07:06:11.542Z,101469.59
2022-10-23T07:08:38.037Z,101478.59
2022-10-23T07:11:09.341Z,101474.59
2022-10-23T07:13:36.743Z,101470.00
2022-10-23T07:16:13.298Z,101479.16
2022-10-23T07:18:39.897Z,101478.75
2022-10-23T07:21:06.422Z,101487.66
2022-10-23T07:23:32.907Z,101485.31
2022-10-23T07:26:10.676Z,101493.66
2022-10-23T07:28:37.747Z,101491.28
2022-10-23T07:31:04.242Z,101494.66
2022-10-23T07:33:30.704Z,101490.97
2022-10-23T07:35:57.232Z,101496.00
2022-10-23T07:38:23.721Z,101497.72
2022-10-23T07:40:50.239Z,101506.44
2022-10-23T07:43:18.400Z,101505.78
2022-10-23T07:45:47.471Z,101500.09
2022-10-23T07:48:13.958Z,101492.75
2022-10-23T07:50:40.457Z,101488.47
2022-10-23T07:53:06.957Z,101488.13
2022-10-23T07:55:33.455Z,101483.91
2022-10-23T07:57:59.933Z,101481.91
2022-10-23T08:00:26.417Z,101489.91
2022-10-23T08:02:52.966Z,101508.22
2022-10-23T08:05:20.248Z,101499.28
2022-10-23T08:07:46.775Z,101503.75
2022-10-23T08:10:13.218Z,101497.56
2022-10-23T08:12:39.726Z,101490.78
2022-10-23T08:15:06.504Z,101485.28
2022-10-23T08:17:33.026Z,101497.81
2022-10-23T08:19:59.515Z,101494.03
2022-10-23T08:22:25.985Z,101498.09
2022-10-23T08:24:52.439Z,101494.50
2022-10-23T08:27:18.903Z,101500.72
2022-10-23T08:29:45.452Z,101501.63
2022-10-23T08:32:11.929Z,101498.28
2022-10-23T08:34:38.456Z,101489.81
2022-10-23T08:37:05.025Z,101488.50
2022-10-23T08:39:31.483Z,101484.97
2022-10-23T08:41:57.959Z,101483.50
2022-10-23T08:44:48.680Z,101488.50
2022-10-23T08:47:18.851Z,101492.47
2022-10-23T08:49:57.658Z,101490.78
2022-10-23T08:52:35.543Z,101485.81
2022-10-23T08:55:31.077Z,101490.47
2022-10-23T08:58:00.502Z,101492.72
2022-10-23T09:00:27.814Z,101490.66
2022-10-23T09:02:54.582Z,101497.25
2022-10-23T09:05:42.038Z,101492.59
2022-10-23T09:08:48.371Z,101493.78
2022-10-23T09:11:24.119Z,101490.38
2022-10-23T09:14:01.506Z,101484.03
2022-10-23T09:16:43.743Z,101478.69
2022-10-23T09:19:18.955Z,101480.63
2022-10-23T09:21:49.649Z,101478.59
2022-10-23T09:24:18.657Z,101468.88
2022-10-23T09:26:49.463Z,101468.22
2022-10-23T09:29:23.974Z,101463.00
2022-10-23T09:31:58.846Z,101470.63
2022-10-23T09:34:27.836Z,101470.50
2022-10-23T09:37:02.600Z,101471.34
2022-10-23T09:39:34.440Z,101471.38
2022-10-23T09:42:02.496Z,101485.97
2022-10-23T09:44:32.108Z,101488.44
2022-10-23T09:47:11.223Z,101489.97
2022-10-23T09:49:40.561Z,101472.66
2022-10-23T09:52:09.958Z,101483.16
2022-10-23T09:54:47.435Z,101480.94
2022-10-23T09:57:16.685Z,101479.75
2022-10-23T09:59:43.199Z,101490.69
2022-10-23T10:02:21.286Z,101478.50
2022-10-23T10:04:47.784Z,101482.69
2022-10-23T10:07:23.129Z,101478.88
2022-10-23T10:09:49.619Z,101475.63
2022-10-23T10:12:21.147Z,101473.44
2022-10-23T10:14:53.497Z,101479.16
2022-10-23T10:17:21.726Z,101483.28
2022-10-23T10:20:05.397Z,101478.47
2022-10-23T10:22:44.056Z,101475.16
2022-10-23T10:25:21.967Z,101478.47
2022-10-23T10:27:56.938Z,101484.38
2022-10-23T10:30:24.205Z,101478.22
2022-10-23T10:33:02.501Z,101463.03
2022-10-23T10:35:38.397Z,101464.38
2022-10-23T10:38:21.721Z,101454.75
2022-10-23T10:41:05.794Z,101443.78
2022-10-23T10:43:47.257Z,101448.19
2022-10-23T10:46:23.798Z,101440.25
2022-10-23T10:49:00.897Z,101434.72
2022-10-23T10:51:39.032Z,101433.44
2022-10-23T10:54:11.740Z,101422.97
2022-10-23T10:56:43.418Z,101417.09
2022-10-23T10:59:37.792Z,101414.94
2022-10-23T11:02:31.743Z,101406.00
2022-10-23T11:05:03.463Z,101404.94
2022-10-23T11:07:35.731Z,101393.66
2022-10-23T11:10:06.772Z,101393.22
2022-10-23T11:12:33.240Z,101388.72
2022-10-23T11:14:59.706Z,101382.19
2022-10-23T11:17:30.266Z,101374.03
2022-10-23T11:20:03.613Z,101367.03
2022-10-23T11:22:38.429Z,101353.28
2022-10-23T11:25:21.511Z,101346.38
2022-10-23T11:28:10.526Z,101347.81
2022-10-23T11:30:44.299Z,101333.78
2022-10-23T11:33:47.971Z,101333.41
2022-10-23T11:36:19.575Z,101324.81
2022-10-23T11:38:48.122Z,101325.72
2022-10-23T11:41:26.624Z,101306.63
2022-10-23T11:43:58.215Z,101302.03
2022-10-23T11:46:25.377Z,101299.19
2022-10-23T11:48:53.649Z,101292.22
2022-10-23T11:53:43.339Z,101283.16
2022-10-23T11:56:12.769Z,101263.25
2022-10-23T11:58:44.585Z,101260.97
2022-10-23T12:01:35.718Z,101248.63
2022-10-23T12:04:27.013Z,101241.84
2022-10-23T12:06:56.947Z,101225.97
2022-10-23T12:09:40.978Z,101230.53
2022-10-23T12:12:07.323Z,101212.22
2022-10-23T12:14:36.722Z,101211.56
2022-10-23T12:17:15.659Z,101204.75
2022-10-23T12:19:47.833Z,101203.91
2022-10-23T12:22:14.611Z,101203.72
2022-10-23T12:25:11.864Z,101196.06
2022-10-23T12:27:42.761Z,101181.09
2022-10-23T12:30:21.843Z,101179.50
2022-10-23T12:33:01.459Z,101162.16
2022-10-23T12:35:47.470Z,101168.88
2022-10-23T12:38:16.110Z,101157.97
2022-10-23T12:40:46.579Z,101140.31
2022-10-23T12:43:25.178Z,101131.34
2022-10-23T12:45:51.917Z,101121.06
2022-10-23T12:48:21.332Z,101112.66
2022-10-23T12:50:53.782Z,101110.03
2022-10-23T12:53:21.257Z,101110.63
2022-10-23T12:56:01.997Z,101114.25
2022-10-23T12:58:31.937Z,101109.63
2022-10-23T13:01:01.467Z,101100.06
2022-10-23T13:03:29.244Z,101098.84
2022-10-23T13:05:58.687Z,101084.88
2022-10-23T13:08:33.908Z,101084.44
2022-10-23T13:11:00.475Z,101076.38
2022-10-23T13:13:26.969Z,101070.56
2022-10-23T13:15:53.508Z,101059.28
2022-10-23T13:18:19.988Z,101055.66
2022-10-23T13:20:52.605Z,101061.28
2022-10-23T13:23:26.729Z,101061.81
2022-10-23T13:25:55.120Z,101072.25
2022-10-23T13:28:24.580Z,101058.91
2022-10-23T13:31:07.626Z,101057.53
2022-10-23T13:33:38.392Z,101051.66
2022-10-23T13:36:13.419Z,101050.31
2022-10-23T13:39:21.972Z,101043.00
2022-10-23T13:41:48.692Z,101042.44
2022-10-23T13:44:16.820Z,101037.91
2022-10-23T13:46:43.716Z,101039.34
2022-10-23T13:49:10.176Z,101028.44
2022-10-23T13:51:42.592Z,101034.88
2022-10-23T13:54:24.578Z,101038.97
2022-10-23T13:56:52.278Z,101034.22
2022-10-23T13:59:19.064Z,101031.59
2022-10-23T14:01:47.610Z,101033.88
2022-10-23T14:04:15.453Z,101037.56
2022-10-23T14:06:42.181Z,101033.03
2022-10-23T14:09:13.058Z,101035.13
2022-10-23T14:11:39.894Z,101031.03
2022-10-23T14:14:06.474Z,101032.66
2022-10-23T14:16:32.999Z,101019.53
2022-10-23T14:18:59.496Z,101015.00
2022-10-23T14:21:25.988Z,101007.19
2022-10-23T14:23:53.443Z,101018.31
2022-10-23T14:26:22.991Z,101009.19
2022-10-23T14:28:52.573Z,101005.00
2022-10-23T14:31:19.217Z,100995.00
2022-10-23T14:33:51.617Z,100992.31
2022-10-23T14:38:45.615Z,100984.94
2022-10-23T14:41:13.778Z,100982.50
2022-10-23T14:43:40.390Z,100967.47
2022-10-23T14:46:14.245Z,100977.38
2022-10-23T14:48:42.426Z,100973.09
2022-10-23T14:51:21.606Z,100956.84
2022-10-23T14:53:48.686Z,100957.84
2022-10-23T14:56:15.746Z,100959.28
2022-10-23T14:58:43.224Z,100944.31
2022-10-23T15:01:10.652Z,100946.59
2022-10-23T15:03:37.295Z,100951.94
2022-10-23T15:06:04.170Z,100949.03
2022-10-23T15:08:30.619Z,100944.56
2022-10-23T15:11:00.313Z,100945.56
2022-10-23T15:13:26.774Z,100949.91
2022-10-23T15:16:07.557Z,100954.00
2022-10-23T15:18:34.267Z,100953.00
2022-10-23T15:21:00.878Z,100954.22
2022-10-23T15:23:27.352Z,100940.66
2022-10-23T15:26:05.524Z,100938.22
2022-10-23T15:28:32.322Z,100945.38
2022-10-23T15:30:59.216Z,100941.50
2022-10-23T15:33:26.071Z,100936.97
2022-10-23T15:35:53.133Z,100946.03
2022-10-23T15:38:19.983Z,100942.75
2022-10-23T15:40:46.913Z,100957.94
2022-10-23T15:43:13.893Z,100950.16
2022-10-23T15:45:42.085Z,100946.03
2022-10-23T15:48:09.198Z,100946.44
2022-10-23T15:50:36.263Z,100943.16
2022-10-23T15:53:03.199Z,100950.59
2022-10-23T15:55:29.825Z,100950.59
2022-10-23T15:57:58.980Z,100953.66
2022-10-23T16:00:25.627Z,100951.41
2022-10-23T16:02:53.351Z,100950.38
2022-10-23T16:05:19.803Z,100951.78
2022-10-23T16:07:46.308Z,100939.47
2022-10-23T16:10:12.903Z,100933.09
2022-10-23T16:12:39.385Z,100939.06
2022-10-23T16:15:07.825Z,100931.69
2022-10-23T16:17:34.283Z,100932.91
2022-10-23T16:20:00.811Z,100923.66
2022-10-23T16:22:27.499Z,100919.75
2022-10-23T16:24:54.024Z,100920.16
2022-10-23T16:27:20.536Z,100919.53
2022-10-23T16:29:46.995Z,100916.06
2022-10-23T16:32:13.434Z,100914.59
2022-10-23T16:34:39.899Z,100899.22
2022-10-23T16:37:06.408Z,100903.72
2022-10-23T16:39:32.958Z,100896.75
2022-10-23T16:41:59.516Z,100911.34
2022-10-23T16:44:25.996Z,100904.13
2022-10-23T16:46:52.465Z,100897.13
2022-10-23T16:49:19.040Z,100894.69
2022-10-23T16:51:45.585Z,100897.75
2022-10-23T16:54:12.191Z,100901.88
2022-10-23T16:56:38.788Z,100900.03
2022-10-23T16:59:05.527Z,100899.81
2022-10-23T17:01:33.434Z,100895.91
2022-10-23T17:04:00.052Z,100888.13
2022-10-23T17:06:28.954Z,100877.84
2022-10-23T17:08:55.919Z,100877.00
2022-10-23T17:11:26.846Z,100867.16
2022-10-23T17:14:02.064Z,100865.09
2022-10-23T17:16:32.087Z,100867.56
2022-10-23T17:18:58.638Z,100868.81
2022-10-23T17:21:25.102Z,100866.34
2022-10-23T17:23:52.365Z,100865.31
2022-10-23T17:26:21.645Z,100869.84
2022-10-23T17:28:48.303Z,100869.84
2022-10-23T17:31:18.746Z,100868.38
2022-10-23T17:33:46.690Z,100864.69
2022-10-23T17:36:15.028Z,100870.84
2022-10-23T17:38:43.365Z,100872.28
2022-10-23T17:41:10.809Z,100870.44
2022-10-23T17:43:37.674Z,100858.75
2022-10-23T17:46:05.249Z,100849.91
2022-10-23T17:48:31.762Z,100839.22
2022-10-23T17:51:03.621Z,100847.03
2022-10-23T17:53:30.227Z,100838.59
2022-10-23T17:55:56.741Z,100829.78
2022-10-23T17:58:23.658Z,100826.50
2022-10-23T18:00:50.352Z,100834.09
2022-10-23T18:03:19.750Z,100832.66
2022-10-23T18:05:46.585Z,100827.53
2022-10-23T18:08:13.164Z,100828.53
2022-10-23T18:10:40.056Z,100822.59
2022-10-23T18:13:06.575Z,100808.41
2022-10-23T18:15:36.048Z,100797.75
2022-10-23T18:18:07.699Z,100799.41
2022-10-23T18:20:39.851Z,100804.94
2022-10-23T18:23:07.116Z,100787.47
2022-10-23T18:25:34.095Z,100783.16
2022-10-23T18:28:02.603Z,100777.19
2022-10-23T18:30:29.383Z,100775.16
2022-10-23T18:32:58.124Z,100776.00
2022-10-23T18:35:25.272Z,100778.66
2022-10-23T18:37:52.059Z,100779.47
2022-10-23T18:40:25.684Z,100776.38
2022-10-23T18:42:54.698Z,100773.13
2022-10-23T18:45:21.361Z,100776.81
2022-10-23T18:47:47.879Z,100769.63
2022-10-23T18:50:14.632Z,100772.69
2022-10-23T18:52:41.159Z,100783.38
2022-10-23T18:55:08.544Z,100793.44
2022-10-23T18:57:36.456Z,100789.31
2022-10-23T19:00:06.000Z,100794.88
2022-10-23T19:02:33.158Z,100785.41
2022-10-23T19:04:59.685Z,100783.56
2022-10-23T19:07:26.803Z,100780.28
2022-10-23T19:09:53.384Z,100762.41
2022-10-23T19:12:19.970Z,100767.75
2022-10-23T19:14:46.571Z,100774.53
2022-10-23T19:17:17.320Z,100767.31
2022-10-23T19:20:08.048Z,100750.06
2022-10-23T19:22:35.183Z,100748.00
2022-10-23T19:25:11.135Z,100754.16
2022-10-23T19:27:38.618Z,100758.88
2022-10-23T19:30:08.659Z,100737.75
2022-10-23T19:32:35.179Z,100735.91
2022-10-23T19:35:01.775Z,100738.38
2022-10-23T19:37:28.493Z,100737.53
2022-10-23T19:39:54.983Z,100724.97
2022-10-23T19:42:21.538Z,100713.88
2022-10-23T19:44:48.097Z,100719.22
2022-10-23T19:47:16.914Z,100731.31
2022-10-23T19:49:43.467Z,100731.69
2022-10-23T19:52:09.997Z,100714.44
2022-10-23T19:54:37.650Z,100710.69
2022-10-23T19:57:04.252Z,100704.34
2022-10-23T19:59:30.836Z,100701.31
2022-10-23T20:01:57.702Z,100688.75
2022-10-23T20:04:24.461Z,100698.19
2022-10-23T20:06:51.244Z,100696.97
2022-10-23T20:09:17.847Z,100706.84
2022-10-23T20:11:45.278Z,100706.41
2022-10-23T20:14:12.461Z,100704.56
2022-10-23T20:16:39.410Z,100699.63
2022-10-23T20:19:10.128Z,100702.94
2022-10-23T20:21:38.138Z,100682.16
2022-10-23T20:24:04.681Z,100687.50
2022-10-23T20:26:31.129Z,100676.81
2022-10-23T20:28:57.586Z,100677.63
2022-10-23T20:31:27.331Z,100682.94
2022-10-23T20:33:54.274Z,100677.00
2022-10-23T20:36:32.073Z,100670.78
2022-10-23T20:39:02.096Z,100679.25
2022-10-23T20:41:28.991Z,100650.66
2022-10-23T20:43:56.164Z,100650.47
2022-10-23T20:46:26.346Z,100642.59
2022-10-23T20:48:53.276Z,100630.72
2022-10-23T20:51:22.266Z,100646.69
2022-10-23T20:53:49.035Z,100652.09
2022-10-23T20:56:18.630Z,100640.75
2022-10-23T20:58:45.646Z,100642.59
2022-10-23T21:01:14.427Z,100643.59
2022-10-23T21:03:41.062Z,100631.22
2022-10-23T21:06:13.391Z,100627.72
2022-10-23T21:08:47.371Z,100612.84
2022-10-23T21:11:17.909Z,100603.41
2022-10-23T21:13:44.922Z,100602.16
2022-10-23T21:16:14.220Z,100594.63
2022-10-23T21:18:45.966Z,100593.16
2022-10-23T21:21:19.072Z,100591.50
2022-10-23T21:23:49.910Z,100593.41
2022-10-23T21:26:17.961Z,100582.97
2022-10-23T21:28:55.848Z,100591.19
2022-10-23T21:31:32.316Z,100597.78
2022-10-23T21:33:58.957Z,100587.91
2022-10-23T21:36:25.768Z,100593.69
2022-10-23T21:38:54.402Z,100589.13
2022-10-23T21:41:29.714Z,100585.78
2022-10-23T21:44:00.945Z,100588.31
2022-10-23T21:46:28.210Z,100589.75
2022-10-23T21:48:54.689Z,100591.66
2022-10-23T21:51:29.568Z,100579.28
2022-10-23T21:53:56.670Z,100582.75
2022-10-23T21:56:36.400Z,100584.59
2022-10-23T21:59:03.868Z,100586.84
2022-10-23T22:01:30.488Z,100597.38
2022-10-23T22:03:57.127Z,100589.00
2022-10-23T22:06:28.583Z,100588.34
2022-10-23T22:08:56.705Z,100592.47
2022-10-23T22:11:23.690Z,100580.94
2022-10-23T22:13:52.395Z,100578.66
2022-10-23T22:16:20.211Z,100578.25
2022-10-23T22:18:46.849Z,100575.34
2022-10-23T22:21:16.200Z,100575.78
2022-10-23T22:23:43.191Z,100571.91
2022-10-23T22:26:25.252Z,100563.50
2022-10-23T22:28:53.613Z,100564.09
2022-10-23T22:31:22.588Z,100562.88
2022-10-23T22:33:50.182Z,100566.72
2022-10-23T22:36:16.664Z,100575.34
2022-10-23T22:38:44.550Z,100575.59
2022-10-23T22:41:11.419Z,100574.34
2022-10-23T22:43:38.406Z,100568.38
2022-10-23T22:46:13.322Z,100566.16
2022-10-23T22:48:39.947Z,100563.84
2022-10-23T22:51:08.922Z,100563.47
2022-10-23T22:53:36.102Z,100563.25
2022-10-23T22:56:09.905Z,100560.56
2022-10-23T22:58:36.588Z,100559.34
2022-10-23T23:01:19.841Z,100551.94
2022-10-23T23:03:46.707Z,100549.09
2022-10-23T23:06:13.577Z,100544.78
2022-10-23T23:08:40.848Z,100548.25
2022-10-23T23:11:08.982Z,100539.78
2022-10-23T23:13:35.539Z,100545.75
2022-10-23T23:16:02.280Z,100549.22
2022-10-23T23:18:29.284Z,100551.53
2022-10-23T23:21:03.872Z,100555.22
2022-10-23T23:23:30.821Z,100551.25
2022-10-23T23:25:57.377Z,100554.97
2022-10-23T23:28:24.087Z,100552.72
2022-10-23T23:30:50.551Z,100547.53
2022-10-23T23:33:19.366Z,100544.00
2022-10-23T23:35:47.027Z,100527.16
2022-10-23T23:38:13.844Z,100516.72
2022-10-23T23:40:40.486Z,100513.38
2022-10-23T23:43:07.195Z,100502.94
2022-10-23T23:45:33.652Z,100505.22
2022-10-23T23:48:00.142Z,100496.59
2022-10-23T23:50:28.065Z,100482.63
2022-10-23T23:52:54.591Z,100485.97
2022-10-23T23:55:21.063Z,100488.66
2022-10-23T23:57:47.683Z,100488.66
